.
WxDataArchive / Data Records for 2008-06-23
2008-06-22 June 2008 2008-06-24

Data Records for Monday, 23 June 2008

Time	Temp	Chill	HIndex	Humid	Dewpt	 Wind 	HiWind	WindDir	Rain 	Barom 
-----	----	-----	------	-----	-----	------	------	-------	-----	----- 
00:00	56.7	56.7	56.7	94	55.0	0	1	270	0.00	29.835 
00:05	56.7	56.7	56.7	94	55.0	0	1	270	0.00	29.837 
00:10	56.7	56.7	56.7	95	55.3	0	1	270	0.00	29.839 
00:15	56.7	56.7	56.7	95	55.3	0	1	270	0.00	29.843 
00:20	56.7	56.7	56.7	95	55.3	0	1	270	0.00	29.844 
00:25	56.7	56.7	56.7	95	55.3	0	1	270	0.00	29.843 
00:30	56.7	56.7	56.7	95	55.3	0	1	270	0.00	29.841 
00:35	56.7	56.7	56.7	95	55.3	0	0	---	0.00	29.839 
00:40	56.7	56.7	56.7	95	55.3	0	0	---	0.00	29.836 
00:45	56.6	56.6	56.6	95	55.2	0	0	---	0.00	29.835 
00:50	56.6	56.6	56.6	95	55.2	0	0	---	0.00	29.833 
00:55	56.6	56.6	56.6	95	55.2	0	0	---	0.00	29.831 
01:00	56.5	56.5	56.5	95	55.1	0	0	---	0.00	29.830 
01:05	56.3	56.3	56.3	95	54.9	0	0	---	0.00	29.844 
01:10	56.2	56.2	56.2	95	54.8	0	0	---	0.00	29.842 
01:15	56.2	56.2	56.2	95	54.8	0	0	---	0.00	29.845 
01:20	56.0	56.0	56.0	95	54.6	0	0	---	0.00	29.843 
01:25	56.0	56.0	56.0	95	54.6	0	0	---	0.00	29.841 
01:30	55.9	55.9	55.9	95	54.5	0	0	---	0.00	29.840 
01:35	55.7	55.7	55.7	95	54.3	0	0	---	0.00	29.842 
01:40	55.6	55.6	55.6	95	54.2	0	0	---	0.00	29.843 
01:45	55.6	55.6	55.6	95	54.2	0	0	---	0.00	29.844 
01:50	55.6	55.6	55.6	96	54.5	0	0	---	0.00	29.845 
01:55	55.7	55.7	55.7	96	54.6	0	0	---	0.00	29.846 
02:00	55.7	55.7	55.7	96	54.6	0	0	---	0.00	29.846 
02:05	55.6	55.6	55.6	96	54.5	0	0	---	0.00	29.848 
02:10	55.6	55.6	55.6	96	54.5	0	0	---	0.00	29.849 
02:15	55.6	55.6	55.6	96	54.5	0	1	270	0.00	29.849 
02:20	55.6	55.6	55.6	96	54.5	0	0	---	0.00	29.852 
02:25	55.6	55.6	55.6	96	54.5	0	0	---	0.00	29.853 
02:30	55.7	55.7	55.7	96	54.6	0	0	---	0.00	29.859 
02:35	55.7	55.7	55.7	96	54.6	0	1	270	0.00	29.859 
02:40	55.7	55.7	55.7	96	54.6	0	0	---	0.00	29.860 
02:45	55.7	55.7	55.7	96	54.6	0	1	270	0.00	29.859 
02:50	55.7	55.7	55.7	96	54.6	0	2	270	0.00	29.858 
02:55	55.7	55.7	55.7	96	54.6	0	1	270	0.00	29.859 
03:00	55.7	55.7	55.7	96	54.6	0	1	270	0.00	29.860 
03:05	55.7	55.7	55.7	96	54.6	0	1	270	0.00	29.859 
03:10	55.6	55.6	55.6	96	54.5	0	0	---	0.00	29.860 
03:15	55.4	55.4	55.4	96	54.3	0	0	---	0.00	29.862 
03:20	55.3	55.3	55.3	96	54.2	0	0	---	0.00	29.864 
03:25	55.1	55.1	55.1	96	54.0	0	0	---	0.00	29.865 
03:30	55.1	55.1	55.1	96	54.0	0	0	---	0.00	29.866 
03:35	55.0	55.0	55.0	96	53.9	0	0	---	0.00	29.865 
03:40	54.8	54.8	54.8	96	53.7	0	0	---	0.00	29.868 
03:45	54.7	54.7	54.7	96	53.6	0	0	---	0.00	29.872 
03:50	54.5	54.5	54.5	96	53.4	0	0	---	0.00	29.871 
03:55	54.4	54.4	54.4	96	53.3	0	0	---	0.00	29.876 
04:00	54.4	54.4	54.4	96	53.3	0	0	---	0.00	29.876 
04:05	54.2	54.2	54.2	96	53.1	0	0	---	0.00	29.874 
04:10	54.1	54.1	54.1	96	53.0	0	0	---	0.00	29.875 
04:15	53.9	53.9	53.9	96	52.8	0	0	---	0.00	29.874 
04:20	53.8	53.8	53.8	96	52.7	0	0	---	0.00	29.874 
04:25	53.6	53.6	53.6	96	52.5	0	0	---	0.00	29.878 
04:30	53.5	53.5	53.5	96	52.4	0	0	---	0.00	29.881 
04:35	53.3	53.3	53.3	96	52.2	0	0	---	0.00	29.881 
04:40	53.3	53.3	53.3	96	52.2	0	0	---	0.00	29.881 
04:45	53.2	53.2	53.2	96	52.1	0	0	---	0.00	29.881 
04:50	53.1	53.1	53.1	96	52.0	0	0	---	0.00	29.882 
04:55	53.1	53.1	53.1	96	52.0	0	0	---	0.00	29.882 
05:00	52.9	52.9	52.9	96	51.8	0	0	---	0.00	29.882 
05:05	52.8	52.8	52.8	96	51.7	0	0	---	0.00	29.883 
05:10	52.9	52.9	52.9	96	51.8	0	0	---	0.00	29.889 
05:15	52.8	52.8	52.8	96	51.7	0	0	---	0.01	29.889 
05:20	52.8	52.8	52.8	96	51.7	0	0	---	0.00	29.889 
05:25	52.9	52.9	52.9	96	51.8	0	0	---	0.00	29.891 
05:30	52.9	52.9	52.9	96	51.8	0	0	---	0.00	29.894 
05:35	52.9	52.9	52.9	96	51.8	0	0	---	0.00	29.895 
05:40	53.2	53.2	53.2	96	52.1	0	0	---	0.00	29.895 
05:45	53.3	53.3	53.3	96	52.2	0	0	---	0.00	29.896 
05:50	53.6	53.6	53.6	96	52.5	0	0	---	0.00	29.895 
05:55	53.9	53.9	53.9	97	53.1	0	0	---	0.00	29.894 
06:00	54.5	54.5	54.5	97	53.7	0	0	---	0.00	29.895 
06:05	54.8	54.8	54.8	97	54.0	0	0	---	0.00	29.894 
06:10	55.1	55.1	55.1	97	54.3	0	0	---	0.00	29.893 
06:15	55.3	55.3	55.3	97	54.5	0	0	---	0.00	29.894 
06:20	55.4	55.4	55.4	97	54.6	0	0	---	0.00	29.895 
06:25	55.6	55.6	55.6	97	54.8	0	0	---	0.00	29.894 
06:30	55.9	55.9	55.9	97	55.1	0	0	---	0.00	29.896 
06:35	56.2	56.2	56.2	97	55.4	0	1	180	0.00	29.897 
06:40	56.3	56.3	56.3	97	55.5	0	1	180	0.00	29.895 
06:45	56.5	56.5	56.5	97	55.7	0	1	180	0.00	29.897 
06:50	56.9	56.9	56.9	97	56.1	0	1	180	0.00	29.899 
06:55	57.2	57.2	57.2	97	56.4	0	1	180	0.00	29.900 
07:00	57.3	57.3	57.3	97	56.5	0	2	202	0.00	29.900 
07:05	57.3	57.3	57.3	96	56.2	0	1	202	0.00	29.904 
07:10	57.6	57.6	57.6	96	56.5	0	1	202	0.00	29.905 
07:15	58.0	58.0	58.0	96	56.9	0	1	202	0.00	29.905 
07:20	58.4	58.4	58.4	96	57.3	0	1	202	0.00	29.904 
07:25	58.6	58.6	58.6	96	57.5	0	1	202	0.00	29.905 
07:30	59.2	59.2	59.2	96	58.1	0	1	292	0.00	29.906 
07:35	59.8	59.8	59.8	96	58.7	0	1	292	0.00	29.905 
07:40	60.4	60.4	60.4	95	59.0	0	1	292	0.00	29.905 
07:45	60.7	60.7	60.7	94	59.0	0	1	292	0.00	29.906 
07:50	61.0	61.0	61.0	92	58.7	0	1	292	0.00	29.906 
07:55	61.5	61.5	61.5	90	58.5	0	2	292	0.00	29.906 
08:00	62.1	62.1	62.1	88	58.5	0	1	292	0.00	29.907 
08:05	62.7	62.7	62.7	87	58.8	0	1	292	0.00	29.911 
08:10	63.2	63.2	63.2	84	58.3	0	1	292	0.00	29.911 
08:15	63.5	63.5	63.5	81	57.6	0	2	292	0.00	29.914 
08:20	63.9	63.9	63.9	79	57.3	0	2	292	0.00	29.917 
08:25	64.0	64.0	64.0	77	56.6	1	3	292	0.00	29.916 
08:30	64.2	64.2	64.2	75	56.1	1	2	248	0.00	29.919 
08:35	64.5	64.5	64.5	74	56.0	1	2	292	0.00	29.918 
08:40	65.0	65.0	65.0	75	56.9	0	2	292	0.00	29.919 
08:45	65.5	65.5	65.5	72	56.2	0	1	292	0.00	29.920 
08:50	65.6	65.6	65.6	70	55.5	1	2	292	0.00	29.918 
08:55	66.0	66.0	66.0	69	55.5	0	2	292	0.00	29.918 
09:00	66.4	66.4	66.4	70	56.3	0	2	292	0.00	29.919 
09:05	66.8	66.8	66.8	71	57.1	0	1	292	0.00	29.916 
09:10	67.6	67.6	67.6	71	57.9	0	1	292	0.00	29.912 
09:15	68.3	68.3	68.3	70	58.1	0	1	292	0.00	29.907 
09:20	68.4	68.4	68.4	66	56.6	0	1	292	0.00	29.907 
09:25	68.6	68.6	68.6	65	56.4	0	2	292	0.00	29.906 
09:30	68.9	68.9	68.9	67	57.5	0	1	292	0.00	29.906 
09:35	69.3	69.3	69.3	62	55.7	1	2	292	0.00	29.907 
09:40	69.8	69.8	69.8	64	57.1	0	2	292	0.00	29.909 
09:45	69.8	69.8	69.8	61	55.7	1	4	270	0.00	29.913 
09:50	69.9	69.9	69.9	62	56.3	1	2	270	0.00	29.914 
09:55	69.8	69.8	69.8	61	55.7	1	3	315	0.00	29.916 
10:00	69.6	69.6	69.6	63	56.4	1	3	315	0.00	29.916 
10:05	69.8	69.8	69.8	61	55.7	1	4	270	0.00	29.918 
10:10	69.8	69.8	69.8	60	55.3	1	3	270	0.00	29.920 
10:15	69.9	69.9	69.9	59	54.9	1	3	292	0.00	29.923 
10:20	69.9	69.9	69.9	60	55.4	0	3	315	0.00	29.925 
10:25	70.4	70.4	70.4	60	55.8	2	4	270	0.00	29.930 
10:30	70.4	70.4	70.4	58	54.9	1	4	292	0.00	29.933 
10:35	70.3	70.3	70.3	57	54.3	1	2	292	0.00	29.933 
10:40	70.4	70.4	70.4	61	56.3	1	3	292	0.00	29.935 
10:45	70.9	70.9	70.9	58	55.4	1	2	270	0.00	29.935 
10:50	70.8	70.8	70.8	57	54.8	1	3	315	0.00	29.935 
10:55	70.9	70.9	70.9	61	56.8	0	4	292	0.00	29.937 
11:00	71.3	71.3	71.3	58	55.7	1	4	270	0.00	29.939 
11:05	71.6	71.6	71.6	57	55.5	1	3	270	0.00	29.937 
11:10	71.1	71.1	71.1	57	55.1	1	4	338	0.00	29.940 
11:15	70.8	70.8	70.8	56	54.3	0	2	248	0.00	29.942 
11:20	71.3	71.3	71.3	59	56.2	0	1	248	0.00	29.942 
11:25	71.8	71.8	71.8	56	55.2	1	3	0	0.00	29.940 
11:30	71.6	71.6	71.6	56	55.1	1	3	270	0.00	29.938 
11:35	71.3	71.3	71.3	55	54.3	0	2	270	0.00	29.938 
11:40	70.8	70.8	70.8	56	54.3	0	2	270	0.00	29.941 
11:45	70.9	70.9	70.9	58	55.4	0	3	338	0.00	29.941 
11:50	71.6	71.6	71.6	59	56.5	1	3	338	0.00	29.941 
11:55	72.0	72.0	72.0	54	54.4	0	2	292	0.00	29.942 
12:00	71.3	71.3	71.3	56	54.8	0	1	315	0.00	29.945 
12:05	71.3	71.3	71.3	62	57.6	0	3	315	0.00	29.945 
12:10	71.6	71.6	71.6	58	56.0	1	4	338	0.00	29.941 
12:15	72.1	72.1	72.1	54	54.5	1	3	270	0.00	29.943 
12:20	72.5	72.5	72.5	55	55.4	1	5	315	0.00	29.947 
12:25	73.0	73.0	73.0	55	55.9	1	3	292	0.00	29.945 
12:30	72.8	72.8	72.8	51	53.6	1	3	292	0.00	29.945 
12:35	72.3	72.3	72.3	55	55.2	1	2	315	0.00	29.947 
12:40	73.0	73.0	73.0	53	54.8	1	1	315	0.00	29.944 
12:45	72.8	72.8	72.8	51	53.6	1	3	315	0.00	29.945 
12:50	72.8	72.8	72.8	56	56.2	1	2	22	0.00	29.946 
12:55	73.5	73.5	73.5	53	55.3	1	3	0	0.00	29.946 
13:00	73.7	73.7	73.7	47	52.2	1	5	338	0.00	29.946 
13:05	74.2	74.2	74.2	47	52.7	1	3	292	0.00	29.947 
13:10	74.6	74.6	74.6	49	54.2	1	2	315	0.00	29.945 
13:15	74.6	74.6	74.6	48	53.6	1	3	315	0.00	29.946 
13:20	74.7	74.7	74.7	50	54.8	1	3	248	0.00	29.946 
13:25	74.9	74.9	74.9	45	52.1	2	5	270	0.00	29.945 
13:30	74.9	74.9	74.9	50	55.0	1	4	270	0.00	29.945 
13:35	74.9	74.9	74.9	47	53.3	1	4	315	0.00	29.943 
13:40	75.1	75.1	77.7	46	52.9	2	5	270	0.00	29.937 
13:45	75.4	75.4	77.8	47	53.7	1	4	338	0.00	29.938 
13:50	74.2	74.2	74.2	49	53.8	1	3	292	0.00	29.943 
13:55	74.0	74.0	74.0	50	54.2	1	3	315	0.00	29.943 
14:00	73.5	73.5	73.5	49	53.2	1	4	292	0.00	29.943 
14:05	73.2	73.2	73.2	56	56.5	1	3	292	0.00	29.944 
14:10	73.7	73.7	73.7	49	53.3	2	4	315	0.00	29.942 
14:15	73.7	73.7	73.7	52	55.0	1	3	315	0.00	29.942 
14:20	73.7	73.7	73.7	52	55.0	1	3	315	0.00	29.944 
14:25	73.7	73.7	73.7	49	53.3	1	5	315	0.00	29.946 
14:30	74.2	74.2	74.2	51	54.9	1	3	292	0.00	29.945 
14:35	75.3	75.3	77.7	46	53.1	1	4	270	0.00	29.946 
14:40	74.7	74.7	74.7	44	51.3	2	5	315	0.00	29.947 
14:45	74.0	74.0	74.0	48	53.0	2	4	292	0.00	29.947 
14:50	74.2	74.2	74.2	54	56.5	1	3	315	0.00	29.946 
14:55	74.7	74.7	74.7	48	53.7	2	4	315	0.00	29.945 
15:00	74.9	74.9	74.9	46	52.7	2	5	248	0.00	29.947 
15:05	74.9	74.9	74.9	48	53.9	2	5	292	0.00	29.948 
15:10	74.7	74.7	74.7	49	54.3	1	5	338	0.00	29.947 
15:15	74.2	74.2	74.2	50	54.3	1	3	292	0.00	29.947 
15:20	74.6	74.6	74.6	50	54.7	2	6	315	0.00	29.947 
15:25	75.1	75.1	77.7	49	54.6	1	3	315	0.00	29.946 
15:30	75.1	75.1	77.7	46	52.9	2	6	315	0.00	29.947 
15:35	74.7	74.7	74.7	47	53.1	2	5	315	0.00	29.948 
15:40	74.9	74.9	74.9	48	53.9	2	4	270	0.00	29.948 
15:45	75.1	75.1	77.7	49	54.6	2	5	292	0.00	29.947 
15:50	75.1	75.1	77.7	46	52.9	2	5	270	0.00	29.948 
15:55	74.9	74.9	74.9	46	52.7	3	6	270	0.00	29.949 
16:00	74.9	74.9	74.9	47	53.3	2	5	338	0.00	29.949 
16:05	74.9	74.9	74.9	48	53.9	1	4	315	0.00	29.949 
16:10	75.1	75.1	77.7	49	54.6	1	5	315	0.00	29.950 
16:15	75.3	75.3	77.7	47	53.7	1	4	315	0.00	29.950 
16:20	75.6	75.6	77.8	45	52.7	3	6	315	0.00	29.955 
16:25	75.6	75.6	77.8	46	53.3	2	4	315	0.00	29.953 
16:30	76.0	76.0	78.0	46	53.7	1	3	315	0.00	29.955 
16:35	76.0	76.0	78.0	45	53.1	1	3	270	0.00	29.956 
16:40	75.3	75.3	77.7	46	53.1	1	3	270	0.00	29.953 
16:45	75.6	75.6	77.8	43	51.5	1	6	270	0.00	29.956 
16:50	75.4	75.4	77.8	46	53.2	2	4	292	0.00	29.957 
16:55	75.6	75.6	77.9	47	53.9	2	5	270	0.00	29.956 
17:00	75.4	75.4	77.8	46	53.2	2	6	315	0.00	29.959 
17:05	75.3	75.3	77.7	48	54.2	2	6	292	0.00	29.960 
17:10	75.1	75.1	77.7	47	53.5	1	5	315	0.00	29.961 
17:15	74.9	74.9	74.9	47	53.3	1	5	315	0.00	29.961 
17:20	74.6	74.6	74.6	49	54.2	1	4	0	0.00	29.962 
17:25	73.9	73.9	73.9	50	54.1	1	4	315	0.00	29.964 
17:30	73.5	73.5	73.5	51	54.2	1	3	292	0.00	29.965 
17:35	73.3	73.3	73.3	50	53.5	1	4	315	0.00	29.965 
17:40	73.5	73.5	73.5	51	54.2	1	4	315	0.00	29.965 
17:45	73.7	73.7	73.7	52	55.0	1	3	338	0.00	29.966 
17:50	73.3	73.3	73.3	52	54.6	2	6	270	0.00	29.967 
17:55	72.3	72.3	72.3	53	54.2	1	3	292	0.00	29.969 
18:00	72.5	72.5	72.5	53	54.4	2	5	292	0.00	29.973 
18:05	72.7	72.7	72.7	50	53.0	2	5	292	0.00	29.975 
18:10	72.7	72.7	72.7	51	53.5	2	6	292	0.00	29.976 
18:15	72.5	72.5	72.5	50	52.8	2	5	292	0.00	29.977 
18:20	72.3	72.3	72.3	51	53.1	1	3	292	0.00	29.978 
18:25	72.3	72.3	72.3	50	52.6	1	4	292	0.00	29.980 
18:30	72.1	72.1	72.1	50	52.4	1	4	315	0.00	29.980 
18:35	72.1	72.1	72.1	50	52.4	2	5	292	0.00	29.983 
18:40	72.0	72.0	72.0	50	52.3	1	3	270	0.00	29.988 
18:45	71.8	71.8	71.8	52	53.2	1	3	292	0.00	29.991 
18:50	71.6	71.6	71.6	51	52.5	1	2	292	0.00	29.993 
18:55	71.3	71.3	71.3	52	52.8	1	5	315	0.00	29.995 
19:00	71.1	71.1	71.1	53	53.1	1	4	292	0.00	29.994 
19:05	70.9	70.9	70.9	52	52.4	1	3	292	0.00	29.992 
19:10	70.8	70.8	70.8	51	51.8	1	5	315	0.00	29.994 
19:15	70.4	70.4	70.4	52	51.9	1	3	292	0.00	29.994 
19:20	70.3	70.3	70.3	52	51.8	0	3	270	0.00	29.995 
19:25	69.9	69.9	69.9	54	52.5	0	1	270	0.00	29.996 
19:30	69.8	69.8	69.8	54	52.4	0	2	270	0.00	30.003 
19:35	69.4	69.4	69.4	55	52.5	0	2	270	0.00	30.005 
19:40	69.3	69.3	69.3	55	52.4	0	1	270	0.00	30.007 
19:45	68.9	68.9	68.9	55	52.1	0	1	270	0.00	30.009 
19:50	68.6	68.6	68.6	55	51.8	0	3	315	0.00	30.009 
19:55	68.4	68.4	68.4	55	51.6	0	1	315	0.00	30.011 
20:00	68.1	68.1	68.1	56	51.8	0	1	315	0.00	30.012 
20:05	67.8	67.8	67.8	57	52.0	0	0	---	0.00	30.008 
20:10	67.4	67.4	67.4	58	52.1	0	0	---	0.00	30.008 
20:15	67.1	67.1	67.1	58	51.8	0	0	---	0.00	30.010 
20:20	66.8	66.8	66.8	60	52.5	0	0	---	0.00	30.010 
20:25	66.6	66.6	66.6	60	52.3	0	0	---	0.00	30.010 
20:30	66.3	66.3	66.3	61	52.4	0	0	---	0.00	30.011 
20:35	66.0	66.0	66.0	62	52.6	0	0	---	0.00	30.011 
20:40	65.5	65.5	65.5	64	53.0	0	0	---	0.00	30.012 
20:45	65.0	65.0	65.0	65	52.9	0	0	---	0.00	30.014 
20:50	64.7	64.7	64.7	65	52.7	0	0	---	0.00	30.016 
20:55	64.2	64.2	64.2	67	53.0	0	0	---	0.00	30.023 
21:00	63.9	63.9	63.9	68	53.1	0	0	---	0.00	30.025 
21:05	63.5	63.5	63.5	69	53.1	0	0	---	0.00	30.023 
21:10	63.2	63.2	63.2	70	53.2	0	0	---	0.00	30.028 
21:15	62.9	62.9	62.9	71	53.3	0	0	---	0.00	30.032 
21:20	62.6	62.6	62.6	71	53.1	0	0	---	0.00	30.032 
21:25	62.4	62.4	62.4	72	53.2	0	0	---	0.00	30.035 
21:30	62.1	62.1	62.1	73	53.3	0	0	---	0.00	30.039 
21:35	62.0	62.0	62.0	73	53.2	0	0	---	0.00	30.040 
21:40	61.6	61.6	61.6	74	53.2	0	0	---	0.00	30.041 
21:45	61.5	61.5	61.5	75	53.5	0	0	---	0.00	30.041 
21:50	61.2	61.2	61.2	76	53.6	0	0	---	0.00	30.046 
21:55	60.9	60.9	60.9	77	53.6	0	0	---	0.00	30.053 
22:00	60.7	60.7	60.7	78	53.8	0	0	---	0.00	30.054 
22:05	60.5	60.5	60.5	79	54.0	0	0	---	0.00	30.054 
22:10	60.5	60.5	60.5	79	54.0	0	0	---	0.00	30.054 
22:15	60.4	60.4	60.4	79	53.9	0	0	---	0.00	30.057 
22:20	60.2	60.2	60.2	80	54.0	0	0	---	0.00	30.058 
22:25	59.9	59.9	59.9	81	54.1	0	0	---	0.00	30.062 
22:30	59.9	59.9	59.9	82	54.4	0	0	---	0.00	30.067 
22:35	59.8	59.8	59.8	82	54.3	0	0	---	0.00	30.067 
22:40	59.8	59.8	59.8	81	54.0	0	0	---	0.00	30.066 
22:45	59.8	59.8	59.8	81	54.0	0	0	---	0.00	30.065 
22:50	59.6	59.6	59.6	81	53.8	0	0	---	0.00	30.064 
22:55	59.5	59.5	59.5	82	54.0	0	0	---	0.00	30.061 
23:00	59.5	59.5	59.5	82	54.0	0	0	---	0.00	30.062 
23:05	59.3	59.3	59.3	82	53.8	0	0	---	0.00	30.064 
23:10	59.3	59.3	59.3	83	54.1	0	0	---	0.00	30.065 
23:15	59.3	59.3	59.3	83	54.1	0	0	---	0.00	30.065 
23:20	59.6	59.6	59.6	82	54.1	0	0	---	0.00	30.067 
23:25	59.8	59.8	59.8	82	54.3	0	0	---	0.00	30.065 
23:30	59.8	59.8	59.8	82	54.3	0	0	---	0.00	30.063 
23:35	59.6	59.6	59.6	82	54.1	0	0	---	0.00	30.065 
23:40	59.3	59.3	59.3	82	53.8	0	0	---	0.00	30.069 
23:45	59.2	59.2	59.2	83	54.0	0	0	---	0.00	30.069 
23:50	58.9	58.9	58.9	83	53.7	0	0	---	0.00	30.070 
23:55	58.6	58.6	58.6	84	53.8	0	0	---	0.00	30.071 

CoCoRaHS
IN-AL-39
A2 Web Hosting
Creative Commons License
GoDaddy
Look for:

loaded 2017-12-12 15:12:48 • last modified 2010-11-18 10:43:29
Privacy PolicyDisclaimer
• wx.awcolley.com is powered by PmWiki v.2002016 •
• all content (unless otherwise noted) © 2017 A W Colley